sensor_id;sensor_type;location;lat;lon;timestamp;pressure;altitude;pressure_sealevel;temperature;humidity
63901;BME280;50538;53.482;10.294;2023-06-10T00:05:37;101420.03;;;16.25;67.95
63901;BME280;50538;53.482;10.294;2023-06-10T00:15:38;101418.94;;;16.05;66.18
63901;BME280;50538;53.482;10.294;2023-06-10T00:25:39;101419.47;;;15.85;68.14
63901;BME280;50538;53.482;10.294;2023-06-10T00:35:40;101422.03;;;15.64;67.48
63901;BME280;50538;53.482;10.294;2023-06-10T00:45:40;101425.69;;;15.48;68.92
63901;BME280;50538;53.482;10.294;2023-06-10T00:55:41;101431.00;;;15.34;68.19
63901;BME280;50538;53.482;10.294;2023-06-10T01:05:41;101430.13;;;15.18;68.16
63901;BME280;50538;53.482;10.294;2023-06-10T01:15:43;101436.59;;;15.01;69.77
63901;BME280;50538;53.482;10.294;2023-06-10T01:26:00;101433.53;;;14.81;68.26
63901;BME280;50538;53.482;10.294;2023-06-10T01:36:01;101431.13;;;14.64;70.09
63901;BME280;50538;53.482;10.294;2023-06-10T01:46:02;101425.53;;;14.50;70.43
63901;BME280;50538;53.482;10.294;2023-06-10T01:56:02;101425.41;;;14.36;70.21
63901;BME280;50538;53.482;10.294;2023-06-10T02:06:03;101431.97;;;14.25;70.24
63901;BME280;50538;53.482;10.294;2023-06-10T02:16:03;101434.00;;;14.15;69.81
63901;BME280;50538;53.482;10.294;2023-06-10T02:26:04;101436.88;;;14.05;70.76
63901;BME280;50538;53.482;10.294;2023-06-10T02:36:04;101435.41;;;13.95;69.03
63901;BME280;50538;53.482;10.294;2023-06-10T02:46:05;101443.09;;;13.81;71.27
63901;BME280;50538;53.482;10.294;2023-06-10T02:56:05;101434.75;;;13.68;71.37
63901;BME280;50538;53.482;10.294;2023-06-10T03:06:05;101456.63;;;13.64;72.30
63901;BME280;50538;53.482;10.294;2023-06-10T03:16:06;101450.94;;;13.58;71.92
63901;BME280;50538;53.482;10.294;2023-06-10T03:26:06;101460.44;;;13.53;72.19
63901;BME280;50538;53.482;10.294;2023-06-10T03:36:07;101451.59;;;13.52;71.93
63901;BME280;50538;53.482;10.294;2023-06-10T03:46:08;101452.28;;;13.54;73.07
63901;BME280;50538;53.482;10.294;2023-06-10T03:56:08;101456.09;;;13.68;73.86
63901;BME280;50538;53.482;10.294;2023-06-10T04:06:08;101458.13;;;13.90;73.09
63901;BME280;50538;53.482;10.294;2023-06-10T04:16:09;101457.03;;;14.16;73.21
63901;BME280;50538;53.482;10.294;2023-06-10T04:26:09;101449.09;;;14.47;73.39
63901;BME280;50538;53.482;10.294;2023-06-10T04:36:12;101451.41;;;14.81;71.98
63901;BME280;50538;53.482;10.294;2023-06-10T04:46:12;101459.78;;;15.09;71.23
63901;BME280;50538;53.482;10.294;2023-06-10T04:56:13;101452.53;;;15.40;72.55
63901;BME280;50538;53.482;10.294;2023-06-10T05:06:15;101455.56;;;15.75;71.96
63901;BME280;50538;53.482;10.294;2023-06-10T05:16:15;101463.66;;;16.19;72.39
63901;BME280;50538;53.482;10.294;2023-06-10T05:26:16;101461.78;;;16.49;70.94
63901;BME280;50538;53.482;10.294;2023-06-10T05:36:16;101465.09;;;16.80;68.63
63901;BME280;50538;53.482;10.294;2023-06-10T05:46:16;101459.56;;;17.25;67.28
63901;BME280;50538;53.482;10.294;2023-06-10T05:56:17;101448.53;;;17.62;68.18
63901;BME280;50538;53.482;10.294;2023-06-10T06:06:18;101444.25;;;17.96;66.81
63901;BME280;50538;53.482;10.294;2023-06-10T06:16:20;101436.47;;;18.42;63.76
63901;BME280;50538;53.482;10.294;2023-06-10T06:26:20;101441.31;;;18.73;64.23
63901;BME280;50538;53.482;10.294;2023-06-10T06:36:21;101435.44;;;19.10;63.93
63901;BME280;50538;53.482;10.294;2023-06-10T06:46:21;101431.94;;;19.76;63.39
63901;BME280;50538;53.482;10.294;2023-06-10T06:56:22;101436.59;;;20.33;60.83
63901;BME280;50538;53.482;10.294;2023-06-10T07:06:22;101438.47;;;20.77;60.40
63901;BME280;50538;53.482;10.294;2023-06-10T07:16:23;101447.72;;;21.33;58.60
63901;BME280;50538;53.482;10.294;2023-06-10T07:26:23;101451.50;;;21.75;56.66
63901;BME280;50538;53.482;10.294;2023-06-10T07:36:24;101450.16;;;22.27;55.34
63901;BME280;50538;53.482;10.294;2023-06-10T07:46:27;101456.34;;;22.83;55.04
63901;BME280;50538;53.482;10.294;2023-06-10T07:56:28;101438.72;;;23.33;53.89
63901;BME280;50538;53.482;10.294;2023-06-10T08:06:28;101446.09;;;23.91;52.23
63901;BME280;50538;53.482;10.294;2023-06-10T08:16:29;101447.59;;;24.22;51.72
63901;BME280;50538;53.482;10.294;2023-06-10T08:26:29;101441.72;;;24.65;51.22
63901;BME280;50538;53.482;10.294;2023-06-10T08:36:29;101438.06;;;25.17;50.02
63901;BME280;50538;53.482;10.294;2023-06-10T08:46:31;101442.94;;;25.65;49.34
63901;BME280;50538;53.482;10.294;2023-06-10T08:56:34;101439.19;;;26.26;48.39
63901;BME280;50538;53.482;10.294;2023-06-10T09:06:40;101431.94;;;26.81;46.79
63901;BME280;50538;53.482;10.294;2023-06-10T09:16:41;101432.72;;;27.30;45.73
63901;BME280;50538;53.482;10.294;2023-06-10T09:26:43;101424.38;;;27.79;45.46
63901;BME280;50538;53.482;10.294;2023-06-10T09:36:45;101418.00;;;28.10;46.39
63901;BME280;50538;53.482;10.294;2023-06-10T09:46:46;101423.06;;;28.39;43.55
63901;BME280;50538;53.482;10.294;2023-06-10T09:56:48;101410.94;;;28.92;45.50
63901;BME280;50538;53.482;10.294;2023-06-10T10:06:49;101417.22;;;29.23;43.25
63901;BME280;50538;53.482;10.294;2023-06-10T10:16:49;101408.47;;;29.56;42.76
63901;BME280;50538;53.482;10.294;2023-06-10T10:26:53;101410.59;;;29.85;42.74
63901;BME280;50538;53.482;10.294;2023-06-10T10:36:55;101411.09;;;30.02;41.96
63901;BME280;50538;53.482;10.294;2023-06-10T10:46:55;101415.88;;;30.41;41.14
63901;BME280;50538;53.482;10.294;2023-06-10T10:57:10;101404.19;;;30.74;41.00
63901;BME280;50538;53.482;10.294;2023-06-10T11:07:11;101411.50;;;31.28;40.49
63901;BME280;50538;53.482;10.294;2023-06-10T11:17:20;101390.63;;;31.56;39.94
63901;BME280;50538;53.482;10.294;2023-06-10T11:27:22;101394.19;;;31.56;39.44
63901;BME280;50538;53.482;10.294;2023-06-10T11:37:24;101377.97;;;32.08;38.28
63901;BME280;50538;53.482;10.294;2023-06-10T11:47:25;101381.41;;;32.42;37.48
63901;BME280;50538;53.482;10.294;2023-06-10T11:57:26;101372.53;;;32.83;36.90
63901;BME280;50538;53.482;10.294;2023-06-10T12:07:27;101370.09;;;33.00;37.04
63901;BME280;50538;53.482;10.294;2023-06-10T12:27:35;101362.88;;;33.50;34.95
63901;BME280;50538;53.482;10.294;2023-06-10T12:37:36;101350.22;;;33.49;35.76
63901;BME280;50538;53.482;10.294;2023-06-10T12:47:37;101340.34;;;33.62;35.52
63901;BME280;50538;53.482;10.294;2023-06-10T12:57:47;101330.44;;;33.75;35.58
63901;BME280;50538;53.482;10.294;2023-06-10T13:07:48;101321.97;;;33.99;35.55
63901;BME280;50538;53.482;10.294;2023-06-10T13:17:49;101321.88;;;34.04;34.96
63901;BME280;50538;53.482;10.294;2023-06-10T13:27:50;101311.25;;;34.11;35.62
63901;BME280;50538;53.482;10.294;2023-06-10T13:37:50;101302.38;;;34.00;32.85
63901;BME280;50538;53.482;10.294;2023-06-10T13:47:51;101280.19;;;34.19;33.93
63901;BME280;50538;53.482;10.294;2023-06-10T13:57:51;101276.09;;;34.53;35.92
63901;BME280;50538;53.482;10.294;2023-06-10T14:07:51;101281.94;;;34.37;35.86
63901;BME280;50538;53.482;10.294;2023-06-10T14:17:51;101290.00;;;34.34;36.54
63901;BME280;50538;53.482;10.294;2023-06-10T14:27:52;101293.41;;;34.31;36.89
63901;BME280;50538;53.482;10.294;2023-06-10T14:37:52;101291.03;;;34.38;37.59
63901;BME280;50538;53.482;10.294;2023-06-10T14:47:53;101292.16;;;34.37;36.83
63901;BME280;50538;53.482;10.294;2023-06-10T14:57:53;101295.47;;;34.61;35.82
63901;BME280;50538;53.482;10.294;2023-06-10T15:07:53;101297.47;;;34.69;35.65
63901;BME280;50538;53.482;10.294;2023-06-10T15:17:54;101292.59;;;34.97;36.23
63901;BME280;50538;53.482;10.294;2023-06-10T15:27:55;101281.03;;;35.18;35.19
63901;BME280;50538;53.482;10.294;2023-06-10T15:37:55;101272.66;;;35.31;34.48
63901;BME280;50538;53.482;10.294;2023-06-10T15:47:56;101272.09;;;35.52;33.97
63901;BME280;50538;53.482;10.294;2023-06-10T15:57:56;101252.78;;;35.60;34.27
63901;BME280;50538;53.482;10.294;2023-06-10T16:08:00;101253.16;;;35.93;33.54
63901;BME280;50538;53.482;10.294;2023-06-10T16:18:01;101254.75;;;35.94;33.27
63901;BME280;50538;53.482;10.294;2023-06-10T16:28:01;101254.81;;;36.29;33.43
63901;BME280;50538;53.482;10.294;2023-06-10T16:38:04;101254.13;;;36.66;31.92
63901;BME280;50538;53.482;10.294;2023-06-10T16:48:05;101260.53;;;37.43;32.02
63901;BME280;50538;53.482;10.294;2023-06-10T16:58:06;101267.44;;;37.28;31.69
63901;BME280;50538;53.482;10.294;2023-06-10T17:08:07;101259.19;;;37.20;30.78
63901;BME280;50538;53.482;10.294;2023-06-10T17:18:07;101264.81;;;37.32;31.03
63901;BME280;50538;53.482;10.294;2023-06-10T17:28:08;101267.81;;;37.18;31.49
63901;BME280;50538;53.482;10.294;2023-06-10T17:38:08;101269.84;;;37.47;30.87
63901;BME280;50538;53.482;10.294;2023-06-10T17:48:08;101288.75;;;37.45;31.19
63901;BME280;50538;53.482;10.294;2023-06-10T17:58:09;101289.22;;;36.92;30.63
63901;BME280;50538;53.482;10.294;2023-06-10T18:08:09;101289.94;;;36.71;32.75
63901;BME280;50538;53.482;10.294;2023-06-10T18:18:10;101296.28;;;36.55;31.82
63901;BME280;50538;53.482;10.294;2023-06-10T18:28:10;101300.66;;;36.04;32.97
63901;BME280;50538;53.482;10.294;2023-06-10T18:38:10;101310.81;;;34.54;34.56
63901;BME280;50538;53.482;10.294;2023-06-10T18:48:11;101338.00;;;31.97;37.71
63901;BME280;50538;53.482;10.294;2023-06-10T18:58:11;101348.41;;;29.95;40.50
63901;BME280;50538;53.482;10.294;2023-06-10T19:08:11;101359.19;;;28.60;41.85
63901;BME280;50538;53.482;10.294;2023-06-10T19:18:12;101371.25;;;27.54;43.07
63901;BME280;50538;53.482;10.294;2023-06-10T19:28:12;101404.41;;;26.77;43.68
63901;BME280;50538;53.482;10.294;2023-06-10T19:38:12;101413.22;;;26.19;45.03
63901;BME280;50538;53.482;10.294;2023-06-10T19:48:13;101429.25;;;25.60;45.30
63901;BME280;50538;53.482;10.294;2023-06-10T19:58:14;101457.53;;;25.25;45.57
63901;BME280;50538;53.482;10.294;2023-06-10T20:08:14;101486.16;;;24.88;46.38
63901;BME280;50538;53.482;10.294;2023-06-10T20:18:15;101483.06;;;24.56;45.91
63901;BME280;50538;53.482;10.294;2023-06-10T20:28:15;101492.72;;;24.23;46.67
63901;BME280;50538;53.482;10.294;2023-06-10T20:38:15;101513.53;;;23.88;46.82
63901;BME280;50538;53.482;10.294;2023-06-10T20:48:15;101500.78;;;23.53;46.21
63901;BME280;50538;53.482;10.294;2023-06-10T20:58:16;101520.22;;;23.20;45.83
63901;BME280;50538;53.482;10.294;2023-06-10T21:08:17;101522.69;;;22.92;44.76
63901;BME280;50538;53.482;10.294;2023-06-10T21:18:18;101511.81;;;22.62;45.96
63901;BME280;50538;53.482;10.294;2023-06-10T21:28:18;101515.69;;;22.29;46.11
63901;BME280;50538;53.482;10.294;2023-06-10T21:38:18;101533.69;;;21.99;45.44
63901;BME280;50538;53.482;10.294;2023-06-10T21:48:19;101532.44;;;21.70;45.71
63901;BME280;50538;53.482;10.294;2023-06-10T21:58:19;101547.41;;;21.41;46.13
63901;BME280;50538;53.482;10.294;2023-06-10T22:08:20;101550.06;;;21.09;47.04
63901;BME280;50538;53.482;10.294;2023-06-10T22:18:20;101539.78;;;20.80;47.11
63901;BME280;50538;53.482;10.294;2023-06-10T22:28:20;101545.69;;;20.51;47.27
63901;BME280;50538;53.482;10.294;2023-06-10T22:38:21;101540.34;;;20.18;47.94
63901;BME280;50538;53.482;10.294;2023-06-10T22:48:21;101545.72;;;19.84;48.89
63901;BME280;50538;53.482;10.294;2023-06-10T22:58:21;101547.38;;;19.53;49.58
63901;BME280;50538;53.482;10.294;2023-06-10T23:08:22;101549.75;;;19.21;49.91
63901;BME280;50538;53.482;10.294;2023-06-10T23:18:22;101549.28;;;18.98;49.87
63901;BME280;50538;53.482;10.294;2023-06-10T23:28:24;101557.00;;;18.73;50.39
63901;BME280;50538;53.482;10.294;2023-06-10T23:38:24;101561.00;;;18.42;50.73
63901;BME280;50538;53.482;10.294;2023-06-10T23:48:24;101557.69;;;18.19;51.42
63901;BME280;50538;53.482;10.294;2023-06-10T23:58:25;101551.94;;;17.94;51.62
